Time;durP1;ratioP1;P1;durP2;ratioP2;P2;SDS_P1;SDS_P2;PMS_P1;PMS_P2;Temp;Humidity;BMP_temperature;BMP_pressure;BME280_temperature;BME280_humidity;BME280_pressure;Samples;Min_cycle;Max_cycle;Signal;HPM_P1;HPM_P2
2023/02/13 00:03:07;;;;;;;23.50;17.67;;;7.30;99.90;;;;;;5003621;28;20054;-85
2023/02/13 00:09:45;;;;;;;22.73;17.92;;;7.00;99.90;;;;;;4953373;28;20125;-84
2023/02/13 00:24:15;;;;;;;;;;;;;;;;;;;;;
2023/02/13 00:27:54;;;;;;;;;;;;;;;;;;;;;
2023/02/13 00:47:15;;;;;;;21.05;18.02;;;7.20;99.90;;;;;;4865981;29;20457;-84
2023/02/13 00:57:16;;;;;;;;;;;;;;;;;;;;;
2023/02/13 01:16:21;;;;;;;;;;;;;;;;;;;;;
2023/02/13 06:10:04;;;;;;;;;;;;;;;;;;;;;
2023/02/13 06:46:06;;;;;;;27.65;17.67;;;6.20;99.90;;;;;;4909503;29;20140;-84
2023/02/13 06:48:32;;;;;;;29.98;18.15;;;6.20;99.90;;;;;;4879714;29;20060;-84
2023/02/13 06:51:14;;;;;;;29.40;18.02;;;6.50;99.90;;;;;;4896524;29;20087;-85
2023/02/13 07:54:55;;;;;;;27.13;18.52;;;6.20;99.90;;;;;;4914388;28;20042;-85
2023/02/13 09:17:55;;;;;;;27.08;16.70;;;7.30;99.90;;;;;;4853744;29;20156;-83
2023/02/13 09:25:50;;;;;;;24.88;15.80;;;7.20;99.90;;;;;;4800165;29;20816;-85
2023/02/13 09:35:57;;;;;;;23.40;16.13;;;7.20;99.90;;;;;;4779993;29;20063;-82
2023/02/13 09:41:54;;;;;;;25.05;16.50;;;7.30;99.90;;;;;;4763886;29;20055;-82
2023/02/13 09:44:42;;;;;;;24.00;16.13;;;7.30;99.90;;;;;;4814248;29;20054;-81
2023/02/13 09:47:38;;;;;;;24.67;16.35;;;7.80;99.90;;;;;;4819135;29;20056;-81
2023/02/13 09:50:33;;;;;;;25.15;15.88;;;7.20;99.90;;;;;;4819200;29;20052;-82
2023/02/13 10:02:45;;;;;;;23.73;15.85;;;7.60;99.90;;;;;;5122042;23;20419;-86
2023/02/13 10:05:35;;;;;;;25.65;16.20;;;7.60;99.90;;;;;;4866161;29;20061;-80
2023/02/13 10:09:00;;;;;;;25.38;16.33;;;8.80;99.90;;;;;;4853564;29;21947;-82
2023/02/13 10:38:21;;;;;;;37.50;16.92;;;7.90;99.90;;;;;;5277498;23;20057;-83
2023/02/13 10:41:25;;;;;;;22.90;15.32;;;8.00;99.90;;;;;;4853843;29;20362;-81
2023/02/13 10:44:22;;;;;;;23.20;15.95;;;8.00;99.90;;;;;;4854403;29;20500;-82
2023/02/13 10:47:14;;;;;;;23.67;15.75;;;8.10;99.90;;;;;;4865173;29;20046;-82
2023/02/13 10:50:23;;;;;;;18.88;14.70;;;8.40;99.90;;;;;;4880857;29;20237;-82
2023/02/13 11:00:32;;;;;;;;;;;;;;;;;;;;;
2023/02/13 11:07:25;;;;;;;24.05;16.08;;;8.20;99.90;;;;;;4963809;23;20087;-83
2023/02/13 11:18:55;;;;;;;;;;;;;;;;;;;;;
2023/02/13 11:36:48;;;;;;;23.20;15.52;;;8.50;99.90;;;;;;4946437;23;20054;-80
2023/02/13 11:39:26;;;;;;;23.73;16.35;;;8.50;99.90;;;;;;4812993;29;20125;-80
2023/02/13 11:42:17;;;;;;;21.38;15.77;;;8.60;99.90;;;;;;4814585;29;20137;-82
2023/02/13 11:45:23;;;;;;;20.75;15.90;;;8.70;99.90;;;;;;4795498;29;20104;-85
2023/02/13 11:48:27;;;;;;;22.65;16.45;;;8.60;99.90;;;;;;4811063;29;20051;-84
2023/02/13 11:51:21;;;;;;;;;;;8.70;99.90;;;;;;4813391;29;20093;-83
2023/02/13 11:54:33;;;;;;;21.52;15.52;;;8.60;99.90;;;;;;4811363;29;20016;-81
2023/02/13 11:57:55;;;;;;;19.80;17.30;;;8.80;99.90;;;;;;4783376;29;20121;-82
2023/02/13 12:16:16;;;;;;;20.33;16.85;;;9.20;99.90;;;;;;4839404;29;20133;-84
2023/02/13 12:18:57;;;;;;;24.45;19.13;;;8.50;99.90;;;;;;4855225;29;20056;-83
2023/02/13 12:44:12;;;;;;;19.92;17.17;;;9.60;99.90;;;;;;5154958;23;20064;-82
2023/02/13 12:50:54;;;;;;;21.63;17.75;;;9.70;99.90;;;;;;4943866;28;20123;-81
2023/02/13 12:56:42;;;;;;;21.35;17.80;;;9.40;99.90;;;;;;4934353;28;20035;-82
2023/02/13 12:59:40;;;;;;;20.88;18.45;;;9.50;99.90;;;;;;4927743;29;20118;-81
2023/02/13 13:02:48;;;;;;;20.67;18.70;;;9.60;99.90;;;;;;4881148;29;20072;-82
2023/02/13 13:05:35;;;;;;;21.50;19.27;;;9.10;99.90;;;;;;4879437;29;20052;-82
2023/02/13 13:08:37;;;;;;;21.25;19.15;;;9.60;99.90;;;;;;4887511;29;20151;-82
2023/02/13 13:11:20;;;;;;;21.30;19.20;;;9.50;99.90;;;;;;4877621;29;20036;-82
2023/02/13 13:14:01;;;;;;;21.27;19.17;;;9.50;99.90;;;;;;4891707;29;20036;-82
2023/02/13 13:20:54;;;;;;;22.00;19.50;;;9.60;99.90;;;;;;4881994;29;20071;-83
2023/02/13 13:24:09;;;;;;;21.63;19.38;;;9.60;99.90;;;;;;4884876;29;20130;-82
2023/02/13 13:38:02;;;;;;;20.17;18.17;;;9.50;99.90;;;;;;5205812;23;20188;-82
2023/02/13 13:40:55;;;;;;;20.45;18.38;;;9.20;99.90;;;;;;4890376;29;20057;-81
2023/02/13 13:44:10;;;;;;;20.20;18.40;;;9.70;99.90;;;;;;4882469;29;20051;-82
2023/02/13 13:47:35;;;;;;;18.75;16.88;;;9.80;99.90;;;;;;4870804;29;20547;-83
2023/02/13 13:50:50;;;;;;;;;;;;;;;;;;;;;
2023/02/13 13:57:39;;;;;;;23.08;20.80;;;9.80;99.90;;;;;;4877467;29;20040;-84
2023/02/13 14:11:36;;;;;;;23.23;20.98;;;10.10;99.90;;;;;;4814630;29;20148;-83
2023/02/13 14:18:00;;;;;;;;;;;;;;;;;;;;;
2023/02/13 14:21:44;;;;;;;23.58;21.30;;;11.00;99.90;;;;;;4919975;29;20157;-81
2023/02/13 14:29:03;;;;;;;23.90;21.52;;;9.40;99.90;;;;;;4888930;29;20059;-83
2023/02/13 14:32:27;;;;;;;22.95;20.83;;;10.10;99.90;;;;;;4870760;29;20146;-81
2023/02/13 14:47:39;;;;;;;23.02;20.92;;;10.50;99.90;;;;;;4850997;29;20044;-81
2023/02/13 14:50:58;;;;;;;22.30;20.15;;;9.70;99.90;;;;;;4806374;29;20056;-82
2023/02/13 14:58:33;;;;;;;;;;;;;;;;;;;;;
2023/02/13 15:02:15;;;;;;;23.40;21.00;;;9.60;99.90;;;;;;4801653;29;20043;-81
2023/02/13 15:47:47;;;;;;;24.15;21.60;;;9.30;99.90;;;;;;4793050;29;20085;-84
2023/02/13 15:51:08;;;;;;;;;;;;;;;;;;;;;
2023/02/13 15:54:55;;;;;;;;;;;;;;;;;;;;;
2023/02/13 15:58:36;;;;;;;21.13;19.23;;;9.10;99.90;;;;;;4817638;29;20540;-84
2023/02/13 16:02:20;;;;;;;21.42;19.35;;;9.80;99.90;;;;;;4808947;29;20157;-81
2023/02/13 16:05:41;;;;;;;20.75;18.65;;;9.10;99.90;;;;;;4778208;29;20130;-82
2023/02/13 16:08:42;;;;;;;22.00;19.90;;;9.50;99.90;;;;;;4777603;29;20051;-81
2023/02/13 16:11:42;;;;;;;22.13;20.02;;;9.00;99.90;;;;;;4758601;29;20166;-83
2023/02/13 16:14:16;;;;;;;22.13;20.02;;;9.20;99.90;;;;;;4793361;29;20119;-80
2023/02/13 16:16:45;;;;;;;20.60;18.63;;;8.70;99.90;;;;;;4814287;29;20045;-83
2023/02/13 16:19:23;;;;;;;22.33;20.02;;;8.60;99.90;;;;;;4845291;29;20059;-80
2023/02/13 16:21:50;;;;;;;20.10;18.17;;;8.80;99.90;;;;;;4888911;29;20137;-81
2023/02/13 16:24:16;;;;;;;21.75;19.65;;;8.60;99.90;;;;;;4877489;29;20047;-80
2023/02/13 16:26:48;;;;;;;21.23;18.90;;;8.30;99.90;;;;;;4889479;29;20047;-81
2023/02/13 16:29:26;;;;;;;19.48;17.42;;;8.30;99.90;;;;;;4877318;29;20060;-81
2023/02/13 16:32:17;;;;;;;19.27;17.25;;;8.20;99.90;;;;;;4895659;29;20036;-83
2023/02/13 16:34:42;;;;;;;23.15;19.55;;;8.10;99.90;;;;;;4868737;29;20040;-82
2023/02/13 16:37:25;;;;;;;18.92;16.92;;;8.20;99.90;;;;;;4895575;29;20401;-81
2023/02/13 16:39:51;;;;;;;25.83;19.38;;;7.90;99.90;;;;;;4877610;29;20051;-80
2023/02/13 16:42:19;;;;;;;20.33;18.20;;;8.00;99.90;;;;;;4878985;29;20052;-83
2023/02/13 16:45:16;;;;;;;18.38;16.48;;;7.70;99.90;;;;;;4878233;29;20124;-82
2023/02/13 16:48:01;;;;;;;21.60;19.40;;;7.70;99.90;;;;;;4889810;29;20064;-84
2023/02/13 16:50:30;;;;;;;21.60;19.52;;;7.70;99.90;;;;;;4882995;29;20059;-80
2023/02/13 16:53:02;;;;;;;23.25;21.15;;;8.50;99.90;;;;;;4876244;29;20053;-78
2023/02/13 16:58:43;;;;;;;20.52;18.48;;;7.80;99.90;;;;;;4890277;29;20718;-82
2023/02/13 17:01:17;;;;;;;21.40;19.30;;;7.10;99.90;;;;;;4894762;29;20087;-84
2023/02/13 17:03:47;;;;;;;23.50;21.15;;;7.20;99.90;;;;;;4906905;29;20065;-83
2023/02/13 17:09:32;;;;;;;25.90;21.83;;;6.70;99.90;;;;;;4902532;29;20059;-80
2023/02/13 17:11:57;;;;;;;25.08;22.48;;;6.70;99.90;;;;;;4882030;29;20044;-82
2023/02/13 17:17:22;;;;;;;25.60;23.00;;;6.40;99.90;;;;;;4889636;29;20577;-81
2023/02/13 17:20:19;;;;;;;25.02;21.77;;;6.20;99.90;;;;;;4885394;29;20056;-82
2023/02/13 17:22:45;;;;;;;;;;;6.90;99.90;;;;;;4903620;29;20044;-83
2023/02/13 17:25:36;;;;;;;24.30;21.58;;;6.40;99.90;;;;;;4905929;29;20026;-82
2023/02/13 17:28:29;;;;;;;25.58;22.85;;;6.60;99.90;;;;;;4872594;29;20048;-83
2023/02/13 17:31:14;;;;;;;25.83;23.15;;;5.80;99.90;;;;;;4898568;29;20072;-82
2023/02/13 17:33:58;;;;;;;25.60;22.98;;;6.00;99.90;;;;;;4888289;29;20048;-80
2023/02/13 17:36:44;;;;;;;26.45;23.58;;;5.80;99.90;;;;;;4888249;29;20067;-83
2023/02/13 17:43:21;;;;;;;27.15;23.30;;;5.70;99.90;;;;;;4868557;29;20185;-81
2023/02/13 17:46:20;;;;;;;;;;;;;;;;;;;;;
2023/02/13 17:49:20;;;;;;;27.05;24.17;;;5.60;99.90;;;;;;4892252;29;20921;-82
2023/02/13 17:51:49;;;;;;;25.13;22.45;;;5.50;99.90;;;;;;4887852;29;20103;-80
2023/02/13 17:54:58;;;;;;;20.92;18.83;;;5.50;99.90;;;;;;4891335;29;20052;-83
2023/02/13 17:57:55;;;;;;;23.60;21.13;;;5.40;99.90;;;;;;4884171;29;20052;-82
2023/02/13 18:00:23;;;;;;;27.27;24.52;;;4.80;99.90;;;;;;4890497;29;20131;-81
2023/02/13 18:02:51;;;;;;;27.75;24.85;;;5.40;99.90;;;;;;4877922;29;20101;-82
2023/02/13 18:05:20;;;;;;;30.17;25.52;;;5.60;99.90;;;;;;4884089;29;20116;-81
2023/02/13 18:07:47;;;;;;;27.15;24.35;;;5.40;99.90;;;;;;4888950;29;20095;-81
2023/02/13 18:10:22;;;;;;;30.13;25.98;;;5.40;99.90;;;;;;4879851;29;20089;-81
2023/02/13 18:12:57;;;;;;;28.45;25.40;;;5.20;99.90;;;;;;4892898;29;20108;-81
2023/02/13 18:15:28;;;;;;;30.27;25.42;;;6.20;99.90;;;;;;4874110;29;20048;-81
2023/02/13 18:18:18;;;;;;;29.80;26.08;;;5.80;99.90;;;;;;4858098;29;20165;-81
2023/02/13 18:20:44;;;;;;;26.13;23.52;;;5.70;99.90;;;;;;4880000;29;20037;-78
2023/02/13 18:23:10;;;;;;;27.33;24.35;;;5.10;99.90;;;;;;4892781;29;20100;-80
2023/02/13 18:36:48;;;;;;;30.67;27.40;;;4.40;99.90;;;;;;4866823;29;20040;-81
2023/02/13 18:39:19;;;;;;;31.63;27.70;;;5.30;99.90;;;;;;4851635;29;20068;-82
2023/02/13 18:41:45;;;;;;;25.02;22.20;;;5.00;99.90;;;;;;4869996;29;20460;-81
2023/02/13 18:44:11;;;;;;;29.02;26.02;;;5.10;99.90;;;;;;4855663;29;20045;-81
2023/02/13 18:46:46;;;;;;;29.90;26.83;;;5.60;99.90;;;;;;4876944;29;20056;-79
2023/02/13 18:49:27;;;;;;;;;;;;;;;;;;;;;
2023/02/13 18:52:06;;;;;;;39.28;33.72;;;5.00;99.90;;;;;;4872144;29;20048;-81
2023/02/13 18:54:37;;;;;;;36.65;32.53;;;5.20;99.90;;;;;;4883538;29;20426;-82
2023/02/13 18:57:31;;;;;;;36.17;32.03;;;5.30;99.90;;;;;;4890234;29;20048;-81
2023/02/13 19:00:16;;;;;;;35.03;31.08;;;5.30;99.90;;;;;;4887362;29;20212;-81
2023/02/13 19:02:53;;;;;;;;;;;5.50;99.90;;;;;;4890948;29;20044;-84
2023/02/13 19:05:22;;;;;;;38.97;31.52;;;5.50;99.90;;;;;;4870797;29;19935;-81
2023/02/13 19:07:51;;;;;;;38.75;33.78;;;5.50;99.90;;;;;;4875826;29;20134;-83
2023/02/13 19:10:17;;;;;;;40.08;34.53;;;5.60;99.90;;;;;;4886479;29;20079;-82
2023/02/13 19:12:46;;;;;;;41.17;34.42;;;5.50;99.90;;;;;;4886215;29;21103;-80
2023/02/13 19:15:17;;;;;;;43.13;35.47;;;5.80;99.90;;;;;;4874812;29;20052;-80
2023/02/13 19:17:46;;;;;;;45.67;37.40;;;5.60;99.90;;;;;;4891570;29;20873;-81
2023/02/13 19:20:12;;;;;;;44.85;38.75;;;5.60;99.90;;;;;;4887709;29;20056;-80
2023/02/13 19:22:37;;;;;;;51.72;42.58;;;5.70;99.90;;;;;;4884102;29;20063;-79
2023/02/13 19:25:03;;;;;;;55.88;43.85;;;5.50;99.90;;;;;;4891961;29;20052;-79
2023/02/13 19:27:29;;;;;;;48.75;41.35;;;5.50;99.90;;;;;;4870506;29;20048;-81
2023/02/13 19:29:55;;;;;;;41.22;34.33;;;6.60;99.90;;;;;;4892792;29;20352;-82
2023/02/13 19:32:20;;;;;;;41.08;34.13;;;5.60;99.90;;;;;;4890784;29;20064;-80
2023/02/13 19:34:46;;;;;;;41.42;34.35;;;5.40;99.90;;;;;;4883878;29;20100;-78
2023/02/13 19:37:13;;;;;;;40.15;34.05;;;5.00;99.90;;;;;;4888727;29;20077;-79
2023/02/13 19:39:41;;;;;;;39.58;32.95;;;6.10;99.90;;;;;;4872875;29;20088;-79
2023/02/13 19:42:07;;;;;;;38.25;33.10;;;5.70;99.90;;;;;;4875072;29;20076;-80
2023/02/13 19:44:32;;;;;;;36.65;31.88;;;5.40;99.90;;;;;;4894235;29;20075;-79
2023/02/13 19:46:58;;;;;;;37.47;32.40;;;5.80;99.90;;;;;;4879237;29;20491;-78
2023/02/13 19:49:24;;;;;;;34.53;30.77;;;5.30;99.90;;;;;;4891201;29;20167;-79
2023/02/13 19:51:50;;;;;;;34.90;29.60;;;5.60;99.90;;;;;;4874469;29;20143;-78
2023/02/13 19:54:15;;;;;;;32.80;27.75;;;5.20;99.90;;;;;;4889226;29;20070;-78
2023/02/13 19:56:42;;;;;;;33.13;27.80;;;5.10;99.90;;;;;;4876388;29;20045;-78
2023/02/13 19:59:12;;;;;;;34.38;28.70;;;5.40;99.90;;;;;;4897901;29;20107;-77
2023/02/13 20:01:40;;;;;;;31.70;27.20;;;4.90;99.90;;;;;;4892976;29;20051;-78
2023/02/13 20:04:05;;;;;;;32.38;28.50;;;4.90;99.90;;;;;;4877130;29;20041;-80
2023/02/13 20:06:34;;;;;;;29.92;26.65;;;5.90;99.90;;;;;;4887039;29;20041;-78
2023/02/13 20:09:02;;;;;;;27.67;24.67;;;4.80;99.90;;;;;;4886756;29;20406;-79
2023/02/13 20:11:28;;;;;;;30.88;26.33;;;5.70;99.90;;;;;;4885577;29;20048;-79
2023/02/13 20:13:56;;;;;;;27.88;24.98;;;4.80;99.90;;;;;;4891417;29;20076;-80
2023/02/13 20:16:23;;;;;;;31.05;26.50;;;4.80;99.90;;;;;;4898798;29;20055;-80
2023/02/13 20:18:49;;;;;;;30.80;25.95;;;4.70;99.90;;;;;;4873222;29;20055;-80
2023/02/13 20:21:16;;;;;;;32.67;27.35;;;5.20;99.90;;;;;;4887750;29;20044;-80
2023/02/13 20:23:47;;;;;;;33.50;28.48;;;5.10;99.90;;;;;;4872335;29;20040;-78
2023/02/13 20:26:15;;;;;;;33.45;27.25;;;5.20;99.90;;;;;;4886288;29;20127;-80
2023/02/13 20:28:43;;;;;;;33.78;29.00;;;5.40;99.90;;;;;;4871063;29;20053;-79
2023/02/13 20:31:10;;;;;;;32.95;27.02;;;5.10;99.90;;;;;;4872895;29;20056;-78
2023/02/13 20:33:38;;;;;;;35.47;27.73;;;4.40;99.90;;;;;;4884654;29;20400;-80
2023/02/13 20:36:26;;;;;;;34.95;28.88;;;5.00;99.90;;;;;;4881610;29;20123;-79
2023/02/13 20:38:55;;;;;;;31.92;28.00;;;4.20;99.90;;;;;;4889808;29;20049;-79
2023/02/13 20:41:23;;;;;;;31.13;27.35;;;4.50;99.90;;;;;;4870359;29;20083;-79
2023/02/13 20:43:50;;;;;;;30.20;25.40;;;4.30;99.90;;;;;;4904473;29;20052;-79
2023/02/13 20:46:16;;;;;;;35.53;28.92;;;4.40;99.90;;;;;;4899549;29;20065;-78
2023/02/13 20:48:43;;;;;;;33.78;27.67;;;4.40;99.90;;;;;;4875127;29;20569;-79
2023/02/13 20:51:11;;;;;;;39.83;31.08;;;4.30;99.90;;;;;;4888694;29;20058;-78
2023/02/13 20:53:37;;;;;;;35.30;29.17;;;4.20;99.90;;;;;;4887592;29;20032;-80
2023/02/13 20:56:12;;;;;;;37.30;29.50;;;4.20;99.90;;;;;;4892808;29;20515;-80
2023/02/13 20:58:39;;;;;;;40.63;31.60;;;4.20;99.90;;;;;;4891496;29;20044;-79
2023/02/13 21:01:25;;;;;;;39.72;31.75;;;3.90;99.90;;;;;;4874032;29;20060;-79
2023/02/13 21:03:53;;;;;;;36.72;29.77;;;4.30;99.90;;;;;;4890431;29;20056;-80
2023/02/13 21:06:28;;;;;;;37.72;27.85;;;4.30;99.90;;;;;;4885349;29;20674;-78
2023/02/13 21:08:54;;;;;;;37.15;28.85;;;4.20;99.90;;;;;;4885118;29;20676;-81
2023/02/13 21:11:43;;;;;;;30.13;21.98;;;4.20;99.90;;;;;;4897858;29;20053;-80
2023/02/13 21:14:12;;;;;;;23.05;17.45;;;4.60;99.90;;;;;;4888330;29;20044;-80
2023/02/13 21:16:40;;;;;;;27.67;21.75;;;4.00;99.90;;;;;;4884855;29;20052;-79
2023/02/13 21:19:15;;;;;;;27.30;20.90;;;4.20;99.90;;;;;;4868491;29;20040;-80
2023/02/13 21:21:43;;;;;;;32.80;28.08;;;4.50;99.90;;;;;;4868819;29;20558;-79
2023/02/13 21:24:11;;;;;;;35.80;30.05;;;3.90;99.90;;;;;;4874348;29;20118;-77
2023/02/13 21:26:37;;;;;;;17.67;15.30;;;4.30;99.90;;;;;;4883693;29;20051;-79
2023/02/13 21:29:04;;;;;;;10.93;9.82;;;3.90;99.90;;;;;;4883464;29;20147;-79
2023/02/13 21:31:38;;;;;;;16.73;15.02;;;4.30;99.90;;;;;;4899801;29;20710;-79
2023/02/13 21:34:07;;;;;;;13.77;12.38;;;3.80;99.90;;;;;;4880136;29;20052;-79
2023/02/13 21:36:34;;;;;;;11.55;10.52;;;3.70;99.90;;;;;;4866494;29;20153;-80
2023/02/13 21:39:00;;;;;;;13.40;12.10;;;4.50;99.90;;;;;;4893773;29;20040;-79
2023/02/13 21:41:26;;;;;;;21.92;19.63;;;4.50;99.90;;;;;;4877231;29;20519;-79
2023/02/13 21:43:52;;;;;;;13.95;12.52;;;3.90;99.90;;;;;;4892096;29;20048;-79
2023/02/13 21:46:25;;;;;;;15.23;13.73;;;3.80;99.90;;;;;;4874635;29;20956;-80
2023/02/13 21:48:55;;;;;;;18.83;16.90;;;4.70;99.90;;;;;;4890613;29;20159;-80
2023/02/13 21:51:23;;;;;;;16.67;14.77;;;4.50;99.90;;;;;;4868406;29;20059;-79
2023/02/13 21:53:49;;;;;;;28.00;24.80;;;3.70;99.90;;;;;;4871913;29;20045;-79
2023/02/13 21:56:18;;;;;;;22.08;19.85;;;3.40;99.90;;;;;;4888473;29;20104;-80
2023/02/13 21:58:45;;;;;;;23.25;18.98;;;4.40;99.90;;;;;;4898369;29;20040;-80
2023/02/13 22:01:22;;;;;;;19.40;17.45;;;3.20;99.90;;;;;;4876605;29;20123;-79
2023/02/13 22:03:48;;;;;;;18.98;17.05;;;3.20;99.90;;;;;;4881012;29;20054;-79
2023/02/13 22:06:16;;;;;;;18.42;16.52;;;3.20;99.90;;;;;;4889040;29;20060;-80
2023/02/13 22:08:43;;;;;;;18.45;16.65;;;3.50;99.90;;;;;;4874204;29;20032;-80
2023/02/13 22:11:09;;;;;;;20.25;16.13;;;2.20;99.90;;;;;;4874161;29;20048;-79
2023/02/13 22:13:38;;;;;;;17.23;15.10;;;3.40;99.90;;;;;;4873650;29;20972;-80
2023/02/13 22:16:10;;;;;;;13.80;12.50;;;3.30;99.90;;;;;;4874005;29;21269;-79
2023/02/13 22:18:46;;;;;;;15.30;13.80;;;2.40;99.90;;;;;;4874671;29;20456;-79
2023/02/13 22:21:15;;;;;;;13.63;12.32;;;2.90;99.90;;;;;;4888105;29;20048;-79
2023/02/13 22:23:42;;;;;;;16.25;14.65;;;3.10;99.90;;;;;;4892206;29;20431;-80
2023/02/13 22:26:34;;;;;;;20.58;17.48;;;2.90;99.90;;;;;;4889476;29;20037;-80
2023/02/13 22:29:05;;;;;;;15.95;14.25;;;3.90;99.90;;;;;;4877937;29;20057;-80
2023/02/13 22:31:31;;;;;;;14.10;12.52;;;2.90;99.90;;;;;;4891911;29;20039;-80
2023/02/13 22:33:59;;;;;;;13.60;11.55;;;2.80;99.90;;;;;;4890092;29;20032;-80
2023/02/13 22:36:25;;;;;;;12.35;11.05;;;3.00;99.90;;;;;;4870499;29;20055;-79
2023/02/13 22:38:52;;;;;;;13.38;10.77;;;2.90;99.90;;;;;;4875908;29;20506;-79
2023/02/13 22:41:20;;;;;;;23.80;18.65;;;3.30;99.90;;;;;;4889412;29;20130;-79
2023/02/13 22:43:46;;;;;;;13.90;12.35;;;2.70;99.90;;;;;;4877614;29;20484;-79
2023/02/13 22:46:14;;;;;;;11.00;9.60;;;2.60;99.90;;;;;;4885263;29;20059;-79
2023/02/13 22:48:43;;;;;;;47.25;13.30;;;2.50;99.90;;;;;;4874250;29;20139;-79
2023/02/13 22:51:09;;;;;;;18.33;10.40;;;2.70;99.90;;;;;;4890283;29;20083;-79
2023/02/13 22:53:36;;;;;;;29.00;7.55;;;2.50;99.90;;;;;;4878712;29;20123;-79
2023/02/13 22:56:03;;;;;;;9.98;7.15;;;2.80;99.90;;;;;;4889193;29;20491;-80
2023/02/13 22:58:32;;;;;;;16.23;8.70;;;2.50;99.90;;;;;;4893234;29;20095;-80
2023/02/13 23:01:07;;;;;;;54.70;13.10;;;2.70;99.90;;;;;;4875239;29;20498;-80
2023/02/13 23:03:33;;;;;;;25.92;19.63;;;2.80;99.90;;;;;;4892917;29;20033;-79
2023/02/13 23:06:01;;;;;;;48.28;18.45;;;3.20;99.90;;;;;;4892147;29;20148;-80
2023/02/13 23:08:27;;;;;;;16.70;13.55;;;2.70;99.90;;;;;;4873954;29;20045;-79
2023/02/13 23:13:37;;;;;;;21.05;16.83;;;2.40;99.90;;;;;;4889940;29;20048;-79
2023/02/13 23:16:02;;;;;;;84.85;18.08;;;3.20;99.90;;;;;;4889366;29;20047;-80
2023/02/13 23:18:28;;;;;;;175.18;17.27;;;2.50;99.90;;;;;;4873895;29;20203;-80
2023/02/13 23:20:56;;;;;;;23.70;11.90;;;2.80;99.90;;;;;;4877110;29;20082;-79
2023/02/13 23:23:25;;;;;;;23.77;12.02;;;3.10;99.90;;;;;;4890216;29;20048;-79
2023/02/13 23:25:50;;;;;;;17.38;11.95;;;2.20;99.90;;;;;;4888892;29;20056;-79
2023/02/13 23:28:16;;;;;;;37.08;13.57;;;2.50;99.90;;;;;;4890404;29;20036;-80
2023/02/13 23:30:42;;;;;;;23.33;15.25;;;2.90;99.90;;;;;;4882814;29;20037;-79
2023/02/13 23:33:07;;;;;;;21.05;15.60;;;2.80;99.90;;;;;;4891365;29;20040;-79
2023/02/13 23:35:33;;;;;;;28.65;19.98;;;3.00;99.90;;;;;;4868297;29;20124;-80
2023/02/13 23:37:59;;;;;;;29.13;19.45;;;2.60;99.90;;;;;;4883025;29;20624;-80
2023/02/13 23:40:25;;;;;;;31.83;22.13;;;2.30;99.90;;;;;;4872462;29;20056;-79
2023/02/13 23:42:50;;;;;;;32.58;22.23;;;2.20;99.90;;;;;;4878761;29;20045;-79
2023/02/13 23:45:16;;;;;;;41.72;25.90;;;2.70;99.90;;;;;;4876436;29;20067;-79
2023/02/13 23:47:42;;;;;;;36.10;23.48;;;2.50;99.90;;;;;;4894679;29;20044;-80
2023/02/13 23:50:17;;;;;;;40.65;26.58;;;2.90;99.90;;;;;;4878828;29;20036;-79
2023/02/13 23:52:42;;;;;;;45.88;27.88;;;2.20;99.90;;;;;;4883240;29;20039;-80
2023/02/13 23:55:08;;;;;;;54.28;29.95;;;2.60;99.90;;;;;;4879145;29;20047;-79
2023/02/13 23:57:34;;;;;;;48.92;29.08;;;3.20;99.90;;;;;;4878449;29;20052;-79
